Time;durP1;ratioP1;P1;durP2;ratioP2;P2;SDS_P1;SDS_P2;PMS_P1;PMS_P2;Temp;Humidity;BMP_temperature;BMP_pressure;BME280_temperature;BME280_humidity;BME280_pressure;Samples;Min_cycle;Max_cycle;Signal;HPM_P1;HPM_P2
2021/01/03 00:02:02;;;;;;;6.45;1.40;;;;;;;18.30;72.97;101746.44;5021563;28;20045;-81
2021/01/03 00:04:28;;;;;;;11.95;1.60;;;;;;;18.31;72.77;101753.59;5033432;28;20133;-81
2021/01/03 00:06:53;;;;;;;3.22;1.55;;;;;;;18.30;72.58;101767.84;5033844;28;20060;-82
2021/01/03 00:09:18;;;;;;;3.25;1.20;;;;;;;18.30;72.25;101775.84;5033007;28;20554;-82
2021/01/03 00:11:44;;;;;;;3.97;1.48;;;;;;;18.29;72.24;101766.03;5034194;28;20045;-82
2021/01/03 00:14:09;;;;;;;4.97;1.20;;;;;;;18.30;72.29;101771.41;5032815;28;20117;-81
2021/01/03 00:16:34;;;;;;;5.95;1.40;;;;;;;18.30;72.39;101776.75;5021946;28;20085;-82
2021/01/03 00:19:00;;;;;;;1.73;1.13;;;;;;;18.29;72.85;101779.41;5026182;28;20072;-84
2021/01/03 00:21:25;;;;;;;9.57;1.52;;;;;;;18.36;71.60;101774.97;5023277;28;20124;-84
2021/01/03 00:23:50;;;;;;;3.53;1.15;;;;;;;18.36;72.70;101775.84;5022602;28;20176;-84
2021/01/03 00:26:16;;;;;;;3.30;1.30;;;;;;;18.31;72.15;101766.94;5014284;28;20041;-83
2021/01/03 00:28:41;;;;;;;2.85;1.38;;;;;;;18.29;72.76;101774.06;5030677;28;20051;-83
2021/01/03 00:31:06;;;;;;;1.42;1.02;;;;;;;18.30;72.65;101784.78;5027771;28;20062;-84
2021/01/03 00:33:32;;;;;;;6.07;1.13;;;;;;;18.30;72.42;101781.19;5014668;28;20625;-86
2021/01/03 00:35:57;;;;;;;4.40;1.30;;;;;;;18.27;72.80;101787.44;5015202;28;20383;-82
2021/01/03 00:38:22;;;;;;;9.25;1.40;;;;;;;18.25;72.71;101785.63;5018524;28;20571;-83
2021/01/03 00:40:48;;;;;;;3.67;1.25;;;;;;;18.26;72.59;101793.66;5027537;28;20026;-85
2021/01/03 00:43:13;;;;;;;3.92;1.48;;;;;;;18.24;72.76;101782.09;5027989;28;20060;-85
2021/01/03 00:45:38;;;;;;;6.65;1.13;;;;;;;18.24;72.94;101783.88;5029726;28;20045;-85
2021/01/03 00:48:04;;;;;;;4.13;1.10;;;;;;;18.23;72.74;101782.97;5013149;28;20038;-85
2021/01/03 00:50:29;;;;;;;1.65;1.00;;;;;;;18.23;73.06;101780.31;5014436;28;20096;-85
2021/01/03 00:52:54;;;;;;;2.78;1.00;;;;;;;18.22;72.97;101783.88;5013857;28;20713;-85
2021/01/03 00:55:20;;;;;;;2.67;0.98;;;;;;;18.21;73.05;101787.44;5013472;28;20463;-85
2021/01/03 00:57:45;;;;;;;1.55;1.00;;;;;;;18.20;72.75;101782.97;5013167;28;20038;-85
2021/01/03 01:00:10;;;;;;;2.30;1.00;;;;;;;18.20;72.87;101793.66;5029711;28;20057;-85
2021/01/03 01:02:35;;;;;;;3.85;1.17;;;;;;;18.20;72.48;101782.97;5027567;28;20072;-85
2021/01/03 01:05:01;;;;;;;1.40;1.17;;;;;;;18.21;73.00;101795.44;5013392;28;20113;-83
2021/01/03 01:07:26;;;;;;;2.22;1.10;;;;;;;18.19;72.61;101791.88;5012759;28;20089;-81
2021/01/03 01:09:51;;;;;;;3.17;1.00;;;;;;;18.20;72.63;101792.75;5013682;28;20050;-83
2021/01/03 01:12:17;;;;;;;2.67;1.17;;;;;;;18.21;72.31;101795.44;5012016;28;20051;-83
2021/01/03 01:14:42;;;;;;;7.00;1.10;;;;;;;18.24;73.10;101800.81;5015307;28;20050;-84
2021/01/03 01:17:08;;;;;;;1.83;1.05;;;;;;;18.27;72.85;101799.91;5026116;28;20050;-83
2021/01/03 01:19:33;;;;;;;3.60;1.15;;;;;;;18.27;72.27;101802.56;5013375;28;20122;-81
2021/01/03 01:21:58;;;;;;;1.67;1.00;;;;;;;18.28;72.80;101791.00;5013066;28;20034;-80
2021/01/03 01:24:24;;;;;;;1.80;0.90;;;;;;;18.28;72.57;101793.66;5016606;28;20037;-81
2021/01/03 01:26:49;;;;;;;2.08;0.80;;;;;;;18.27;72.04;101800.78;5032533;28;20049;-80
2021/01/03 01:29:14;;;;;;;6.78;1.08;;;;;;;18.28;72.55;101793.66;5030791;28;20064;-80
2021/01/03 01:31:39;;;;;;;1.73;0.90;;;;;;;18.28;72.70;101785.66;5025353;28;20479;-80
2021/01/03 01:34:05;;;;;;;1.65;0.80;;;;;;;18.27;72.76;101771.38;5013819;28;20705;-81
2021/01/03 01:36:30;;;;;;;1.60;0.93;;;;;;;18.27;72.38;101765.16;5029418;28;20587;-83
2021/01/03 01:38:55;;;;;;;3.17;0.90;;;;;;;18.27;72.38;101760.69;5028477;28;20072;-83
2021/01/03 01:41:21;;;;;;;2.72;0.98;;;;;;;18.27;72.66;101766.03;5022085;28;20060;-83
2021/01/03 01:43:46;;;;;;;2.90;0.88;;;;;;;18.28;72.42;101765.16;5031908;28;20054;-83
2021/01/03 01:46:11;;;;;;;4.90;0.90;;;;;;;18.28;72.58;101774.94;5023923;28;20057;-80
2021/01/03 01:48:37;;;;;;;1.65;0.90;;;;;;;18.28;72.33;101770.50;5014068;28;20061;-84
2021/01/03 01:51:05;;;;;;;1.80;0.90;;;;;;;18.30;72.58;101779.41;5028526;28;20049;-81
2021/01/03 01:53:30;;;;;;;1.70;0.90;;;;;;;18.28;72.18;101782.97;5027704;28;20045;-83
2021/01/03 01:55:56;;;;;;;2.65;1.00;;;;;;;18.28;72.08;101785.66;5030568;28;20052;-82
2021/01/03 01:58:21;;;;;;;3.03;1.00;;;;;;;18.26;72.45;101787.41;5024475;28;20142;-81
2021/01/03 02:00:47;;;;;;;1.75;0.80;;;;;;;18.25;72.14;101783.84;5012547;28;20068;-82
2021/01/03 02:03:12;;;;;;;4.18;1.05;;;;;;;18.24;72.18;101778.53;5011752;28;20041;-81
2021/01/03 02:05:37;;;;;;;1.33;0.70;;;;;;;18.26;71.82;101774.06;5011166;28;20084;-81
2021/01/03 02:08:03;;;;;;;2.40;0.90;;;;;;;18.26;72.22;101771.38;5012120;28;20069;-80
2021/01/03 02:10:28;;;;;;;0.95;0.80;;;;;;;18.26;72.19;101772.28;5011759;28;20038;-82
2021/01/03 02:12:53;;;;;;;4.65;0.98;;;;;;;18.26;72.06;101769.59;5011324;28;20049;-83
2021/01/03 02:15:19;;;;;;;1.10;0.90;;;;;;;18.26;72.29;101769.59;5011140;28;20125;-82
2021/01/03 02:17:44;;;;;;;1.75;0.80;;;;;;;18.26;72.02;101766.03;5011586;28;20041;-83
2021/01/03 02:20:09;;;;;;;1.38;0.80;;;;;;;18.26;71.62;101776.72;5011875;28;20422;-86
2021/01/03 02:22:35;;;;;;;0.90;0.73;;;;;;;18.27;71.98;101774.06;5011470;28;20402;-85
2021/01/03 02:25:01;;;;;;;12.88;1.00;;;;;;;18.28;71.92;101770.50;5011304;28;20077;-82
2021/01/03 02:27:27;;;;;;;7.63;0.80;;;;;;;18.26;71.93;101772.28;5010888;28;20088;-83
2021/01/03 02:29:52;;;;;;;1.40;1.00;;;;;;;18.23;71.96;101774.97;5012247;28;20453;-84
2021/01/03 02:32:17;;;;;;;3.25;0.60;;;;;;;18.23;72.32;101774.06;5010701;28;20046;-84
2021/01/03 02:34:43;;;;;;;1.23;0.75;;;;;;;18.22;72.09;101781.19;5012780;28;20355;-84
2021/01/03 02:37:08;;;;;;;5.88;0.80;;;;;;;18.22;72.46;101782.97;5012142;28;20038;-83
2021/01/03 02:39:33;;;;;;;2.25;0.70;;;;;;;18.22;71.96;101783.88;5012430;28;20366;-82
2021/01/03 02:41:58;;;;;;;2.08;0.70;;;;;;;18.22;71.99;101781.19;5010722;28;20041;-80
2021/01/03 02:44:24;;;;;;;4.55;0.65;;;;;;;18.21;72.29;101776.72;5012426;28;20049;-83
2021/01/03 02:46:49;;;;;;;0.70;0.70;;;;;;;18.20;71.73;101772.28;5011301;28;20042;-82
2021/01/03 02:49:14;;;;;;;0.77;0.70;;;;;;;18.21;72.00;101778.50;5012028;28;20042;-83
2021/01/03 02:51:40;;;;;;;3.60;0.80;;;;;;;18.24;71.89;101765.16;5011714;28;20398;-78
2021/01/03 02:54:05;;;;;;;6.45;0.80;;;;;;;18.30;72.22;101763.38;5010330;28;20042;-80
2021/01/03 02:56:30;;;;;;;4.10;1.02;;;;;;;18.28;71.68;101761.59;5010929;28;20046;-80
2021/01/03 02:58:56;;;;;;;4.13;0.68;;;;;;;18.23;71.88;101766.94;5009900;28;20113;-80
2021/01/03 03:01:21;;;;;;;1.25;0.60;;;;;;;18.22;72.03;101761.59;5009971;28;20117;-79
2021/01/03 03:03:46;;;;;;;4.00;0.80;;;;;;;18.24;71.59;101758.03;5011011;28;20049;-81
2021/01/03 03:06:12;;;;;;;1.83;0.70;;;;;;;18.24;71.85;101755.38;5011754;28;20045;-81
2021/01/03 03:08:37;;;;;;;6.78;0.80;;;;;;;18.22;72.21;101754.47;5011962;28;20046;-81
2021/01/03 03:11:02;;;;;;;2.35;0.70;;;;;;;18.24;72.21;101757.16;5013567;28;20065;-80
2021/01/03 03:13:28;;;;;;;3.53;0.82;;;;;;;18.22;71.83;101757.13;5015583;28;20062;-80
2021/01/03 03:15:53;;;;;;;3.08;0.90;;;;;;;18.24;71.91;101757.16;5014157;28;20120;-81
2021/01/03 03:18:18;;;;;;;3.72;0.73;;;;;;;18.23;72.20;101750.00;5013646;28;20042;-82
2021/01/03 03:20:46;;;;;;;0.73;0.57;;;;;;;18.24;71.63;101751.78;5014018;28;20049;-82
2021/01/03 03:23:11;;;;;;;3.20;0.80;;;;;;;18.21;71.83;101747.31;5014095;28;20038;-82
2021/01/03 03:25:36;;;;;;;1.52;0.60;;;;;;;18.22;71.63;101748.22;5014159;28;20052;-83
2021/01/03 03:28:02;;;;;;;0.88;0.57;;;;;;;18.22;71.58;101749.13;5015013;28;20066;-81
2021/01/03 03:30:27;;;;;;;1.67;0.70;;;;;;;18.22;72.00;101750.91;5013923;28;20042;-82
2021/01/03 03:32:53;;;;;;;7.85;1.85;;;;;;;18.26;71.76;101750.00;5014194;28;20053;-81
2021/01/03 03:35:18;;;;;;;0.95;0.70;;;;;;;18.26;71.87;101753.56;5013903;28;20293;-80
2021/01/03 03:37:44;;;;;;;2.10;0.70;;;;;;;18.25;71.21;101750.88;5015410;28;20109;-80
2021/01/03 03:40:09;;;;;;;3.20;0.68;;;;;;;18.24;71.73;101754.47;5013507;28;20391;-81
2021/01/03 03:42:34;;;;;;;1.05;0.50;;;;;;;18.25;71.71;101751.78;5013355;28;20103;-80
2021/01/03 03:45:00;;;;;;;2.00;0.68;;;;;;;18.24;71.36;101757.16;5014004;28;20092;-81
2021/01/03 03:47:25;;;;;;;2.78;0.57;;;;;;;18.24;71.86;101751.78;5015488;28;20100;-82
2021/01/03 03:49:50;;;;;;;2.05;0.55;;;;;;;18.23;71.81;101750.00;5015039;28;20042;-82
2021/01/03 03:52:15;;;;;;;0.80;0.55;;;;;;;18.22;71.46;101749.13;5013585;28;20115;-82
2021/01/03 03:54:41;;;;;;;1.77;0.80;;;;;;;18.23;71.59;101752.69;5014286;28;20102;-81
2021/01/03 03:57:06;;;;;;;1.73;0.70;;;;;;;18.22;71.17;101753.56;5014057;28;20073;-80
2021/01/03 03:59:31;;;;;;;2.10;0.60;;;;;;;18.22;71.55;101746.44;5013446;28;20049;-81
2021/01/03 04:01:57;;;;;;;0.70;0.50;;;;;;;18.22;71.35;101753.56;5014466;28;20041;-75
2021/01/03 04:04:22;;;;;;;3.13;0.50;;;;;;;18.22;71.24;101751.78;5013392;28;20053;-81
2021/01/03 04:06:47;;;;;;;0.63;0.50;;;;;;;18.22;71.37;101749.13;5021769;28;20033;-81
2021/01/03 04:09:13;;;;;;;1.90;0.52;;;;;;;18.22;71.37;101756.25;5033025;28;20038;-82
2021/01/03 04:11:38;;;;;;;1.02;0.50;;;;;;;18.21;71.17;101751.78;5021881;28;20034;-79
2021/01/03 04:14:03;;;;;;;3.65;0.63;;;;;;;18.23;71.33;101750.91;5013206;28;20054;-80
2021/01/03 04:16:29;;;;;;;1.05;0.57;;;;;;;18.22;71.79;101751.78;5012968;28;20164;-80
2021/01/03 04:18:54;;;;;;;0.80;0.60;;;;;;;18.24;71.35;101752.69;5014576;28;20066;-81
2021/01/03 04:21:19;;;;;;;3.17;0.50;;;;;;;18.21;71.35;101760.69;5012078;28;20038;-81
2021/01/03 04:23:45;;;;;;;3.70;0.40;;;;;;;18.21;71.11;101758.03;5014311;28;20041;-80
2021/01/03 04:26:10;;;;;;;5.53;0.52;;;;;;;18.20;71.48;101758.91;5013106;28;20439;-80
2021/01/03 04:28:35;;;;;;;0.95;0.60;;;;;;;18.21;71.44;101763.38;5013738;28;20050;-80
2021/01/03 04:31:01;;;;;;;1.17;0.50;;;;;;;18.21;71.50;101757.13;5013048;28;20034;-79
2021/01/03 04:33:26;;;;;;;1.42;0.65;;;;;;;18.22;71.56;101766.94;5012648;28;20121;-79
2021/01/03 04:35:51;;;;;;;17.02;0.60;;;;;;;18.84;73.00;101761.53;5014123;28;20117;-77
2021/01/03 04:38:16;;;;;;;1.02;0.50;;;;;;;18.41;71.00;101759.78;5012745;28;20129;-77
2021/01/03 04:40:42;;;;;;;4.15;0.60;;;;;;;18.25;71.19;101765.13;5013067;28;20498;-77
2021/01/03 04:43:07;;;;;;;1.50;0.55;;;;;;;18.22;71.12;101767.81;5012960;28;20453;-76
2021/01/03 04:45:32;;;;;;;2.03;0.50;;;;;;;18.22;71.13;101769.59;5012050;28;20073;-77
2021/01/03 04:47:58;;;;;;;17.88;0.60;;;;;;;18.21;70.87;101767.81;5010955;28;20130;-76
2021/01/03 04:50:23;;;;;;;3.45;0.50;;;;;;;18.21;71.21;101767.81;5012798;28;20042;-77
2021/01/03 04:52:48;;;;;;;0.75;0.50;;;;;;;18.21;71.52;101767.81;5013089;28;20030;-76
2021/01/03 04:55:14;;;;;;;1.13;0.50;;;;;;;18.20;71.09;101766.94;5012773;28;20038;-76
2021/01/03 04:57:39;;;;;;;1.50;0.60;;;;;;;18.19;71.50;101774.94;5011954;28;20045;-76
2021/01/03 05:00:04;;;;;;;0.70;0.45;;;;;;;18.19;71.31;101781.19;5011433;28;20048;-76
2021/01/03 05:02:30;;;;;;;0.63;0.43;;;;;;;18.19;71.21;101778.50;5011096;28;20250;-75
2021/01/03 05:04:55;;;;;;;1.02;0.60;;;;;;;18.19;71.21;101780.28;5019318;28;20398;-76
2021/01/03 05:07:20;;;;;;;1.27;0.60;;;;;;;18.18;71.26;101781.19;5032068;28;20046;-77
2021/01/03 05:09:46;;;;;;;1.60;0.50;;;;;;;18.18;71.52;101783.88;5032176;28;20380;-76
2021/01/03 05:12:11;;;;;;;1.85;0.50;;;;;;;18.17;71.39;101788.31;5031105;28;20038;-79
2021/01/03 05:14:36;;;;;;;0.60;0.50;;;;;;;18.20;71.69;101793.66;5031045;28;20064;-80
2021/01/03 05:17:02;;;;;;;18.77;0.70;;;;;;;18.23;71.19;101793.66;4996080;28;20051;-81
2021/01/03 05:19:27;;;;;;;12.70;0.50;;;;;;;18.25;71.14;101801.66;5010998;28;20038;-79
2021/01/03 05:21:52;;;;;;;13.18;0.63;;;;;;;18.33;70.96;101802.56;5013258;28;20042;-82
2021/01/03 05:24:17;;;;;;;30.65;1.38;;;;;;;18.34;70.59;101807.03;5011435;28;20038;-81
2021/01/03 05:26:43;;;;;;;14.85;0.90;;;;;;;18.26;70.61;101808.81;5012983;28;20144;-83
2021/01/03 05:29:08;;;;;;;33.03;1.48;;;;;;;18.22;71.27;101812.38;5012671;28;20368;-84
2021/01/03 05:31:33;;;;;;;12.52;0.88;;;;;;;18.20;70.95;101817.72;5013014;28;20050;-83
2021/01/03 05:33:59;;;;;;;26.63;1.25;;;;;;;18.20;71.30;101815.03;5012201;28;20057;-79
2021/01/03 05:36:24;;;;;;;12.10;0.70;;;;;;;18.20;71.00;101814.16;5013227;28;20046;-78
2021/01/03 05:38:50;;;;;;;20.20;0.80;;;;;;;18.23;71.08;101816.84;5012321;28;20042;-81
2021/01/03 05:41:15;;;;;;;20.30;0.80;;;;;;;18.20;70.65;101828.41;5012297;28;20041;-81
2021/01/03 05:43:41;;;;;;;10.65;0.80;;;;;;;18.17;71.36;101830.19;5012974;28;20052;-81
2021/01/03 05:46:06;;;;;;;13.70;0.90;;;;;;;18.15;71.15;101822.16;5012113;28;20050;-81
2021/01/03 05:48:31;;;;;;;12.80;0.90;;;;;;;18.14;71.54;101825.72;5012929;28;20038;-81
2021/01/03 05:50:57;;;;;;;13.55;0.85;;;;;;;18.13;70.90;101828.38;5011124;28;20038;-80
2021/01/03 05:53:22;;;;;;;5.53;1.08;;;;;;;18.14;71.14;101831.06;5009814;28;20061;-80
2021/01/03 05:55:47;;;;;;;7.35;1.00;;;;;;;18.12;71.22;101835.50;4997379;28;20258;-80
2021/01/03 05:58:13;;;;;;;12.10;1.30;;;;;;;18.17;71.39;101839.09;5012015;28;20045;-79
2021/01/03 06:00:39;;;;;;;9.48;1.08;;;;;;;18.16;71.63;101836.44;5010349;28;20048;-80
2021/01/03 06:03:04;;;;;;;4.50;1.67;;;;;;;18.14;71.40;101831.06;5010865;28;20422;-82
2021/01/03 06:05:29;;;;;;;12.35;1.45;;;;;;;18.18;71.33;101838.19;5011428;28;20042;-82
2021/01/03 06:07:55;;;;;;;15.55;1.45;;;;;;;18.18;70.87;101843.53;5010769;28;20510;-82
2021/01/03 06:10:20;;;;;;;7.43;1.50;;;;;;;18.18;71.22;101850.69;5011115;28;20394;-82
2021/01/03 06:12:45;;;;;;;3.28;1.23;;;;;;;18.17;71.17;101851.59;5011221;28;20052;-82
2021/01/03 06:15:11;;;;;;;7.97;1.60;;;;;;;18.16;71.14;101847.13;5011003;28;20497;-82
2021/01/03 06:17:36;;;;;;;13.57;1.20;;;;;;;18.15;70.95;101859.59;5012438;28;20467;-82
2021/01/03 06:20:01;;;;;;;2.35;1.00;;;;;;;18.14;70.97;101856.91;5011243;28;20093;-82
2021/01/03 06:22:27;;;;;;;2.55;1.33;;;;;;;18.13;71.09;101856.00;5011173;28;20108;-82
2021/01/03 06:24:52;;;;;;;2.22;1.30;;;;;;;18.13;71.35;101860.47;5012076;28;20483;-82
2021/01/03 06:27:17;;;;;;;7.78;1.52;;;;;;;18.13;71.12;101858.69;5011729;28;20047;-83
2021/01/03 06:29:43;;;;;;;5.03;1.40;;;;;;;18.14;71.42;101872.94;5012508;28;20049;-82
2021/01/03 06:32:08;;;;;;;2.20;1.05;;;;;;;18.12;71.34;101875.59;5010173;28;20064;-82
2021/01/03 06:34:33;;;;;;;2.55;1.70;;;;;;;18.10;70.90;101871.16;5011340;28;20050;-82
2021/01/03 06:36:59;;;;;;;2.45;1.60;;;;;;;18.09;71.66;101875.63;5012065;28;20046;-81
2021/01/03 06:39:24;;;;;;;8.25;1.58;;;;;;;18.13;71.23;101880.06;5011417;28;20060;-82
2021/01/03 06:41:49;;;;;;;4.65;1.67;;;;;;;18.10;70.88;101877.41;5010800;28;20057;-82
2021/01/03 06:44:15;;;;;;;4.18;1.63;;;;;;;18.13;71.54;101881.84;5012419;28;20080;-83
2021/01/03 06:46:40;;;;;;;9.30;1.73;;;;;;;18.16;70.78;101881.88;5015259;28;20072;-83
2021/01/03 06:49:05;;;;;;;2.10;1.42;;;;;;;18.12;70.80;101880.06;5014439;28;20038;-83
2021/01/03 06:51:31;;;;;;;9.85;1.60;;;;;;;18.17;71.21;101879.22;5015290;28;20078;-82
2021/01/03 06:53:56;;;;;;;11.52;1.80;;;;;;;18.20;71.11;101878.31;5016310;28;20577;-82
2021/01/03 06:56:21;;;;;;;8.55;1.60;;;;;;;18.17;71.14;101878.31;5014674;28;20038;-81
2021/01/03 06:58:47;;;;;;;5.78;1.35;;;;;;;18.18;71.65;101875.63;5015290;28;20045;-78
2021/01/03 07:01:12;;;;;;;7.53;1.40;;;;;;;18.21;71.21;101877.41;5013534;28;20034;-79
2021/01/03 07:03:37;;;;;;;4.28;1.65;;;;;;;18.22;71.36;101879.22;5015465;28;20054;-78
2021/01/03 07:06:02;;;;;;;2.28;1.20;;;;;;;18.20;71.11;101880.97;5016737;28;20060;-78
2021/01/03 07:08:28;;;;;;;5.47;1.25;;;;;;;18.20;71.44;101881.88;5035147;28;20556;-80
2021/01/03 07:10:53;;;;;;;5.38;1.20;;;;;;;18.23;71.26;101872.97;5033440;28;20437;-77
2021/01/03 07:13:18;;;;;;;6.18;1.27;;;;;;;18.21;71.06;101880.09;5026364;28;20232;-80
2021/01/03 07:15:44;;;;;;;3.38;1.10;;;;;;;18.21;70.79;101869.41;5000734;28;20129;-78
2021/01/03 07:18:09;;;;;;;10.18;1.00;;;;;;;18.22;70.92;101868.50;5013588;28;20070;-80
2021/01/03 07:20:35;;;;;;;19.95;1.20;;;;;;;18.25;71.16;101876.53;5013846;28;20069;-79
2021/01/03 07:23:00;;;;;;;5.78;1.30;;;;;;;18.24;71.25;101878.34;5014524;28;20042;-80
2021/01/03 07:25:25;;;;;;;8.73;1.05;;;;;;;18.21;70.91;101878.31;5013843;28;20042;-80
2021/01/03 07:27:51;;;;;;;4.20;1.05;;;;;;;18.20;70.65;101873.84;5014612;28;20038;-81
2021/01/03 07:30:16;;;;;;;6.80;1.00;;;;;;;18.21;71.12;101875.63;5023589;28;20041;-78
2021/01/03 07:32:42;;;;;;;3.08;1.20;;;;;;;18.22;70.56;101882.78;5032990;28;20079;-79
2021/01/03 07:35:07;;;;;;;1.60;0.90;;;;;;;18.24;70.42;101877.44;5030580;28;20049;-78
2021/01/03 07:37:32;;;;;;;6.68;1.15;;;;;;;18.19;70.55;101882.75;5012184;28;20052;-78
2021/01/03 07:39:58;;;;;;;4.25;1.00;;;;;;;18.20;70.49;101880.97;5013539;28;20042;-77
2021/01/03 07:42:23;;;;;;;1.75;1.00;;;;;;;18.20;70.35;101879.19;5014381;28;20052;-79
2021/01/03 07:44:48;;;;;;;5.68;0.90;;;;;;;18.21;70.73;101878.31;5014670;28;20042;-79
2021/01/03 07:47:14;;;;;;;2.20;1.00;;;;;;;18.20;70.84;101873.84;5014093;28;20042;-81
2021/01/03 07:49:39;;;;;;;1.40;0.80;;;;;;;18.22;70.90;101877.44;5014538;28;20038;-82
2021/01/03 07:52:04;;;;;;;7.20;1.00;;;;;;;18.21;70.38;101877.41;5012952;28;20136;-80
2021/01/03 07:54:30;;;;;;;7.07;1.13;;;;;;;18.19;71.00;101874.72;5013984;28;20042;-81
2021/01/03 07:56:55;;;;;;;32.60;1.98;;;;;;;18.36;70.89;101881.91;5014137;28;20037;-82
2021/01/03 07:59:20;;;;;;;40.30;2.35;;;;;;;18.57;70.47;101874.84;5012777;28;20065;-76
2021/01/03 08:01:46;;;;;;;40.28;2.17;;;;;;;18.51;70.86;101865.91;5008759;28;20050;-83
2021/01/03 08:04:11;;;;;;;21.15;1.67;;;;;;;18.41;71.15;101872.09;5028996;28;20462;-81
2021/01/03 08:06:37;;;;;;;14.40;1.42;;;;;;;18.32;71.30;101868.53;5015941;28;20026;-80
2021/01/03 08:09:03;;;;;;;13.27;2.28;;;;;;;18.32;72.04;101870.28;5029125;28;20376;-77
2021/01/03 08:11:28;;;;;;;61.50;3.33;;;;;;;18.42;72.74;101863.19;5033589;28;20029;-78
2021/01/03 08:13:54;;;;;;;49.13;2.45;;;;;;;18.52;71.85;101867.66;5032266;28;20045;-78
2021/01/03 08:16:19;;;;;;;81.32;4.22;;;;;;;18.51;71.95;101863.22;5016330;28;20049;-76
2021/01/03 08:18:44;;;;;;;67.47;2.92;;;;;;;18.45;72.06;101863.19;5030061;28;20068;-77
2021/01/03 08:21:10;;;;;;;28.15;2.22;;;;;;;18.35;72.11;101862.31;5011960;28;20054;-83
2021/01/03 08:23:35;;;;;;;21.45;2.35;;;;;;;18.31;71.72;101858.72;5011717;28;20038;-77
2021/01/03 08:26:01;;;;;;;24.65;2.03;;;;;;;18.28;71.81;101857.81;5011764;28;20076;-77
2021/01/03 08:28:26;;;;;;;22.98;1.75;;;;;;;18.28;71.72;101853.38;5012873;28;20042;-73
2021/01/03 08:30:51;;;;;;;7.15;2.20;;;;;;;18.26;71.78;101849.78;5012221;28;20038;-74
2021/01/03 08:33:17;;;;;;;32.35;2.38;;;;;;;18.25;71.08;101850.69;5011778;28;20114;-75
2021/01/03 08:35:42;;;;;;;20.75;2.67;;;;;;;18.24;71.02;101846.25;5010920;28;20045;-74
2021/01/03 08:38:07;;;;;;;16.52;2.90;;;;;;;18.22;71.10;101845.34;5012262;28;20034;-74
2021/01/03 08:40:32;;;;;;;11.88;2.88;;;;;;;18.21;71.15;101848.00;5011886;28;20065;-74
2021/01/03 08:42:58;;;;;;;13.35;3.25;;;;;;;18.22;71.04;101841.78;5011167;28;20038;-74
2021/01/03 08:45:23;;;;;;;23.38;3.80;;;;;;;18.21;70.88;101840.00;5031654;28;20498;-74
2021/01/03 08:47:48;;;;;;;12.43;3.38;;;;;;;18.19;71.31;101839.97;5029797;28;20555;-77
2021/01/03 08:50:14;;;;;;;8.52;3.13;;;;;;;18.20;70.98;101831.06;5029710;28;20586;-76
2021/01/03 08:52:39;;;;;;;13.85;3.95;;;;;;;18.22;71.05;101833.75;5030935;28;20045;-77
2021/01/03 08:55:04;;;;;;;10.52;4.13;;;;;;;18.21;70.81;101838.22;5010265;28;20409;-76
2021/01/03 08:57:30;;;;;;;13.63;5.13;;;;;;;18.21;70.88;101831.97;5016483;28;20112;-77
2021/01/03 08:59:57;;;;;;;12.27;5.22;;;;;;;18.20;71.18;101836.44;5027781;28;20406;-77
2021/01/03 09:02:22;;;;;;;14.13;5.72;;;;;;;18.21;71.00;101838.22;5015968;28;20487;-77
2021/01/03 09:04:47;;;;;;;10.43;5.50;;;;;;;18.20;71.11;101839.09;5023551;28;20056;-77
2021/01/03 09:07:13;;;;;;;14.68;6.80;;;;;;;18.20;70.60;101833.75;5010705;28;20443;-77
2021/01/03 09:09:38;;;;;;;10.60;6.85;;;;;;;18.20;70.90;101835.53;5021635;28;20445;-78
2021/01/03 09:12:04;;;;;;;10.40;6.85;;;;;;;18.20;70.98;101831.06;5021637;28;20387;-79
2021/01/03 09:14:29;;;;;;;13.10;7.57;;;;;;;18.18;71.05;101835.53;5021904;28;20356;-78
2021/01/03 09:16:55;;;;;;;15.90;7.50;;;;;;;18.18;70.71;101835.53;5027514;28;20049;-78
2021/01/03 09:19:20;;;;;;;17.55;7.80;;;;;;;18.19;70.91;101823.06;5016281;28;20336;-76
2021/01/03 09:21:45;;;;;;;14.70;7.63;;;;;;;18.19;71.08;101823.94;5012039;28;20441;-76
2021/01/03 09:24:11;;;;;;;14.63;8.50;;;;;;;18.21;70.70;101818.59;5029058;28;20504;-78
2021/01/03 09:26:36;;;;;;;12.85;7.93;;;;;;;18.20;70.60;101820.38;5023347;28;20471;-78
2021/01/03 09:29:01;;;;;;;20.50;9.60;;;;;;;18.19;71.06;101817.69;5018027;28;20096;-78
2021/01/03 09:31:27;;;;;;;17.40;9.00;;;;;;;18.20;70.96;101824.84;5020944;28;20041;-78
2021/01/03 09:33:52;;;;;;;16.95;9.00;;;;;;;18.18;70.69;101811.47;5020579;28;20038;-78
2021/01/03 09:36:17;;;;;;;19.95;9.45;;;;;;;18.21;70.85;101814.16;5023608;28;20050;-79
2021/01/03 09:38:42;;;;;;;24.83;9.90;;;;;;;18.19;70.57;101809.69;5018447;28;20067;-78
2021/01/03 09:41:08;;;;;;;16.58;10.32;;;;;;;18.20;70.25;101807.03;5014049;28;20045;-77
2021/01/03 09:43:33;;;;;;;17.17;9.82;;;;;;;18.19;70.77;101801.66;5029421;28;20076;-78
2021/01/03 09:45:58;;;;;;;20.40;10.95;;;;;;;18.21;70.63;101800.78;5031063;28;20121;-78
2021/01/03 09:48:24;;;;;;;14.57;10.20;;;;;;;18.19;70.75;101785.63;5029625;28;20048;-78
2021/01/03 09:50:49;;;;;;;16.63;10.27;;;;;;;18.18;70.95;101789.22;5011434;28;20048;-77
2021/01/03 09:53:14;;;;;;;26.73;11.40;;;;;;;18.21;70.78;101784.75;5022120;28;20038;-82
2021/01/03 09:55:40;;;;;;;65.72;11.70;;;;;;;18.39;71.01;101782.97;5026883;28;20086;-81
2021/01/03 09:58:05;;;;;;;48.30;11.55;;;;;;;18.46;71.02;101784.75;5028183;28;20045;-78
2021/01/03 10:00:30;;;;;;;75.75;13.75;;;;;;;18.43;70.97;101782.97;5021338;28;20387;-81
2021/01/03 10:02:56;;;;;;;73.78;13.02;;;;;;;18.47;71.01;101782.06;5028861;28;20390;-84
2021/01/03 10:05:21;;;;;;;60.10;13.10;;;;;;;18.44;70.66;101782.09;5022667;28;20415;-81
2021/01/03 10:07:46;;;;;;;70.05;12.95;;;;;;;18.36;70.76;101769.63;5019669;28;20509;-79
2021/01/03 10:10:12;;;;;;;41.53;11.60;;;;;;;18.30;70.99;101770.50;5029058;28;20042;-80
2021/01/03 10:12:37;;;;;;;48.95;12.68;;;;;;;18.28;71.35;101770.50;5030195;28;20107;-79
2021/01/03 10:15:02;;;;;;;37.75;12.15;;;;;;;18.28;70.96;101757.13;5029177;28;20042;-80
2021/01/03 10:17:28;;;;;;;30.52;11.50;;;;;;;18.28;70.82;101748.22;5030736;28;20053;-80
2021/01/03 10:19:53;;;;;;;27.75;12.07;;;;;;;18.26;71.17;101745.53;5030214;28;20042;-80
2021/01/03 10:22:18;;;;;;;23.50;11.05;;;;;;;18.25;71.02;101737.50;5030982;28;20044;-79
2021/01/03 10:24:43;;;;;;;27.05;11.38;;;;;;;18.25;70.45;101740.19;5031157;28;20069;-80
2021/01/03 10:27:13;;;;;;;19.10;10.80;;;;;;;18.26;70.67;101740.19;5029764;28;20037;-79
2021/01/03 10:29:38;;;;;;;28.02;11.43;;;;;;;18.25;70.85;101733.06;5029974;28;20604;-79
2021/01/03 10:32:04;;;;;;;27.15;11.32;;;;;;;18.24;70.71;101725.97;5029424;28;20049;-79
2021/01/03 10:34:29;;;;;;;26.65;11.90;;;;;;;18.26;70.37;101724.16;5028951;28;20394;-79
2021/01/03 10:36:54;;;;;;;26.58;11.40;;;;;;;18.25;70.57;101708.09;5030388;28;20553;-78
2021/01/03 10:39:20;;;;;;;23.20;10.70;;;;;;;18.25;70.99;101698.31;5028984;28;20401;-79
2021/01/03 10:41:46;;;;;;;19.88;10.90;;;;;;;18.22;70.91;101703.66;5029971;28;20033;-78
2021/01/03 10:44:12;;;;;;;32.03;11.05;;;;;;;18.23;70.73;101702.78;5029676;28;20037;-78
2021/01/03 10:46:37;;;;;;;26.63;11.85;;;;;;;18.23;71.17;101699.22;5030997;28;20051;-79
2021/01/03 10:49:02;;;;;;;20.27;10.48;;;;;;;18.22;70.89;101709.03;5030659;28;20033;-78
2021/01/03 10:51:28;;;;;;;21.60;11.23;;;;;;;18.22;70.93;101701.00;5031217;28;20057;-80
2021/01/03 10:53:53;;;;;;;19.63;10.70;;;;;;;18.20;71.06;101694.75;5031203;28;20049;-80
2021/01/03 10:56:18;;;;;;;17.48;10.75;;;;;;;18.24;71.11;101695.66;5030747;28;20509;-80
2021/01/03 10:58:44;;;;;;;21.98;10.88;;;;;;;18.23;71.30;101693.88;5031408;28;20459;-80
2021/01/03 11:01:09;;;;;;;20.88;11.25;;;;;;;18.23;71.38;101692.09;5029560;28;20458;-79
2021/01/03 11:03:34;;;;;;;15.75;10.73;;;;;;;18.21;71.39;101687.63;5029950;28;20666;-80
2021/01/03 11:06:00;;;;;;;16.05;10.80;;;;;;;18.19;71.42;101687.63;5029440;28;20049;-79
2021/01/03 11:08:25;;;;;;;17.15;10.65;;;;;;;18.21;71.55;101674.25;5031077;28;20080;-80
2021/01/03 11:10:50;;;;;;;20.73;10.65;;;;;;;18.22;70.97;101678.72;5029730;28;20053;-80
2021/01/03 11:13:16;;;;;;;17.80;11.20;;;;;;;18.23;71.25;101667.16;5030514;28;20682;-80